createdAt,value
2018-05-07T00:00:51.649Z,14.5
2018-05-07T00:02:11.567Z,14.5
2018-05-07T00:03:31.406Z,14.5
2018-05-07T00:04:51.230Z,14.5
2018-05-07T00:06:11.113Z,14.5
2018-05-07T00:07:31.005Z,14.5
2018-05-07T00:08:53.387Z,14.5
2018-05-07T00:10:15.823Z,14.5
2018-05-07T00:11:35.733Z,14.5
2018-05-07T00:13:00.621Z,14.5
2018-05-07T00:14:20.526Z,14.5
2018-05-07T00:15:40.390Z,14.5
2018-05-07T00:17:00.224Z,14.5
2018-05-07T00:18:20.050Z,14.4
2018-05-07T00:19:39.927Z,14.3
2018-05-07T00:21:04.858Z,14.4
2018-05-07T00:22:32.310Z,14.4
2018-05-07T00:23:59.732Z,14.4
2018-05-07T00:25:22.107Z,14.4
2018-05-07T00:26:42.014Z,14.5
2018-05-07T00:28:04.471Z,14.4
2018-05-07T00:29:24.298Z,14.3
2018-05-07T00:30:44.141Z,14.3
2018-05-07T00:32:03.983Z,14.2
2018-05-07T00:33:23.846Z,14.3
2018-05-07T00:34:48.726Z,14.3
2018-05-07T00:36:08.559Z,14.3
2018-05-07T00:37:28.385Z,14.2
2018-05-07T00:38:50.737Z,14.3
2018-05-07T00:40:10.616Z,14.2
2018-05-07T00:41:32.994Z,14.1
2018-05-07T00:42:52.858Z,14.1
2018-05-07T00:44:15.216Z,14.1
2018-05-07T00:45:42.629Z,14.2
2018-05-07T00:47:07.508Z,14.2
2018-05-07T00:48:32.397Z,14.2
2018-05-07T00:49:52.261Z,14.3
2018-05-07T00:51:12.107Z,14.3
2018-05-07T00:52:37.018Z,14.3
2018-05-07T00:54:04.494Z,14.3
2018-05-07T00:55:24.314Z,14.4
2018-05-07T00:56:44.132Z,14.3
2018-05-07T00:58:06.559Z,14.3
2018-05-07T00:59:26.405Z,14.3
2018-05-07T01:00:46.253Z,14.2
2018-05-07T01:02:06.085Z,14.2
2018-05-07T01:03:25.903Z,14.2
2018-05-07T01:04:50.828Z,14.2
2018-05-07T01:06:10.656Z,14.2
2018-05-07T01:07:30.479Z,14.2
2018-05-07T01:08:50.301Z,14.1
2018-05-07T01:10:25.324Z,14.2
2018-05-07T01:11:47.704Z,14.1
2018-05-07T01:13:07.575Z,14.2
2018-05-07T01:14:27.449Z,14.2
2018-05-07T01:15:49.795Z,14.1
2018-05-07T01:17:09.648Z,14.1
2018-05-07T01:18:32.013Z,14
2018-05-07T01:19:54.407Z,14.1
2018-05-07T01:21:14.229Z,14.1
2018-05-07T01:22:36.610Z,14.1
2018-05-07T01:24:04.067Z,14.1
2018-05-07T01:25:31.496Z,14.1
2018-05-07T01:26:53.858Z,14.1
2018-05-07T01:28:16.239Z,14
2018-05-07T01:29:38.591Z,14
2018-05-07T01:30:58.448Z,14
2018-05-07T01:32:23.361Z,13.8
2018-05-07T01:33:43.225Z,13.7
2018-05-07T01:35:10.642Z,13.8
2018-05-07T01:36:33.028Z,13.8
2018-05-07T01:37:52.875Z,14
2018-05-07T01:39:12.708Z,14
2018-05-07T01:40:35.118Z,14.1
2018-05-07T01:41:54.936Z,14.1
2018-05-07T01:43:17.332Z,14.1
2018-05-07T01:44:37.199Z,14
2018-05-07T01:45:57.014Z,13.9
2018-05-07T01:47:16.865Z,14
2018-05-07T01:48:39.218Z,14
2018-05-07T01:50:01.608Z,13.9
2018-05-07T01:51:21.462Z,13.9
2018-05-07T01:52:46.374Z,14
2018-05-07T01:54:06.222Z,14.1
2018-05-07T01:55:26.104Z,14
2018-05-07T01:56:45.948Z,14.1
2018-05-07T01:58:05.772Z,14
2018-05-07T01:59:28.188Z,14
2018-05-07T02:00:50.563Z,13.9
2018-05-07T02:02:20.522Z,13.9
2018-05-07T02:03:45.396Z,13.8
2018-05-07T02:05:07.750Z,13.9
2018-05-07T02:06:27.567Z,13.9
2018-05-07T02:07:49.916Z,13.9
2018-05-07T02:09:09.759Z,13.9
2018-05-07T02:10:29.582Z,13.8
2018-05-07T02:11:54.503Z,13.8
2018-05-07T02:13:14.330Z,13.8
2018-05-07T02:14:34.150Z,13.8
2018-05-07T02:15:54.014Z,13.8
2018-05-07T02:17:18.900Z,13.9
2018-05-07T02:18:38.747Z,13.9
2018-05-07T02:20:01.185Z,14
2018-05-07T02:21:21.097Z,14.1
2018-05-07T02:22:40.970Z,14.1
2018-05-07T02:24:00.818Z,14.2
2018-05-07T02:25:23.163Z,14.2
2018-05-07T02:26:42.980Z,14.2
2018-05-07T02:28:07.855Z,14.2
2018-05-07T02:29:40.399Z,14.2
2018-05-07T02:31:05.277Z,14.2
2018-05-07T02:32:25.168Z,14.1
2018-05-07T02:33:45.005Z,14.2
2018-05-07T02:35:04.885Z,14.1
2018-05-07T02:36:24.722Z,13.9
2018-05-07T02:37:44.550Z,13.9
2018-05-07T02:39:09.474Z,13.8
2018-05-07T02:40:36.911Z,13.9
2018-05-07T02:41:56.739Z,13.8
2018-05-07T02:43:19.104Z,13.9
2018-05-07T02:44:38.972Z,13.7
2018-05-07T02:45:58.794Z,13.7
2018-05-07T02:47:18.614Z,13.8
2018-05-07T02:48:38.497Z,13.8
2018-05-07T02:49:58.321Z,13.4
2018-05-07T02:51:18.137Z,13.7
2018-05-07T02:52:45.621Z,13.8
2018-05-07T02:54:08.027Z,13.8
2018-05-07T02:55:30.418Z,13.8
2018-05-07T02:56:50.301Z,13.8
2018-05-07T02:58:10.181Z,13.7
2018-05-07T02:59:37.641Z,13.7
2018-05-07T03:00:57.507Z,13.6
2018-05-07T03:02:19.880Z,13.7
2018-05-07T03:03:47.324Z,13.9
2018-05-07T03:05:07.171Z,14
2018-05-07T03:06:27.007Z,14.1
2018-05-07T03:07:46.829Z,14.2
2018-05-07T03:09:06.667Z,14.1
2018-05-07T03:10:34.100Z,13.9
2018-05-07T03:11:59.097Z,14
2018-05-07T03:13:18.951Z,13.9
2018-05-07T03:14:38.780Z,13.9
2018-05-07T03:15:58.598Z,13.9
2018-05-07T03:17:21.018Z,13.8
2018-05-07T03:18:40.867Z,13.7
2018-05-07T03:20:00.777Z,13.7
2018-05-07T03:21:23.124Z,13.6
2018-05-07T03:22:42.952Z,13.7
2018-05-07T03:24:07.839Z,13.8
2018-05-07T03:25:35.298Z,13.7
2018-05-07T03:26:55.174Z,13.6
2018-05-07T03:28:17.524Z,13.5
2018-05-07T03:29:50.029Z,13.5
2018-05-07T03:31:12.371Z,13.6
2018-05-07T03:32:37.259Z,13.6
2018-05-07T03:34:02.144Z,13.9
2018-05-07T03:35:21.963Z,13.6
2018-05-07T03:36:41.816Z,13.5
2018-05-07T03:38:01.639Z,13.6
2018-05-07T03:39:26.568Z,13.8
2018-05-07T03:40:46.413Z,13.7
2018-05-07T03:42:06.307Z,13.8
2018-05-07T03:43:26.165Z,13.7
2018-05-07T03:44:58.697Z,13.7
2018-05-07T03:46:18.533Z,13.7
2018-05-07T03:47:40.957Z,13.6
2018-05-07T03:49:13.467Z,13.7
2018-05-07T03:50:38.353Z,13.6
2018-05-07T03:51:58.171Z,13.6
2018-05-07T03:53:25.650Z,13.6
2018-05-07T03:54:47.999Z,13.6
2018-05-07T03:56:07.827Z,13.7
2018-05-07T03:57:30.235Z,13.6
2018-05-07T03:58:50.112Z,13.7
2018-05-07T04:00:09.924Z,13.7
2018-05-07T04:01:32.285Z,13.9
2018-05-07T04:02:54.650Z,13.9
2018-05-07T04:04:17.049Z,13.8
2018-05-07T04:05:39.409Z,13.8
2018-05-07T04:07:01.800Z,13.7
2018-05-07T04:08:24.198Z,13.8
2018-05-07T04:09:44.022Z,14
2018-05-07T04:11:03.854Z,13.8
2018-05-07T04:12:23.680Z,13.9
2018-05-07T04:13:46.058Z,13.6
2018-05-07T04:15:05.908Z,13.7
2018-05-07T04:16:25.760Z,13.6
2018-05-07T04:17:55.755Z,13.6
2018-05-07T04:19:20.666Z,13.6
2018-05-07T04:20:43.024Z,13.7
2018-05-07T04:22:02.843Z,13.4
2018-05-07T04:23:25.233Z,13.6
2018-05-07T04:24:47.610Z,13.9
2018-05-07T04:26:12.510Z,13.8
2018-05-07T04:27:34.862Z,13.6
2018-05-07T04:28:59.743Z,13.6
2018-05-07T04:30:27.157Z,13.6
2018-05-07T04:31:46.976Z,13.7
2018-05-07T04:33:06.845Z,13.7
2018-05-07T04:34:26.678Z,13.7
2018-05-07T04:35:46.500Z,13.7
2018-05-07T04:37:06.353Z,13.8
2018-05-07T04:38:26.191Z,13.7
2018-05-07T04:39:46.042Z,13.7
2018-05-07T04:41:05.919Z,13.8
2018-05-07T04:42:30.832Z,13.7
2018-05-07T04:43:50.699Z,13.8
2018-05-07T04:45:10.558Z,13.8
2018-05-07T04:46:30.470Z,13.9
2018-05-07T04:47:57.885Z,13.9
2018-05-07T04:49:20.268Z,13.8
2018-05-07T04:50:40.091Z,13.9
2018-05-07T04:51:59.966Z,13.9
2018-05-07T04:53:22.376Z,13.9
2018-05-07T04:54:42.205Z,13.9
2018-05-07T04:56:04.571Z,13.7
2018-05-07T04:57:29.488Z,13.9
2018-05-07T04:58:51.851Z,13.9
2018-05-07T05:00:16.768Z,14.2
2018-05-07T05:01:39.121Z,14.1
2018-05-07T05:03:01.469Z,14.1
2018-05-07T05:04:21.289Z,14.1
2018-05-07T05:05:41.109Z,14.2
2018-05-07T05:07:00.997Z,14.1
2018-05-07T05:08:20.854Z,14.1
2018-05-07T05:09:43.238Z,14.2
2018-05-07T05:11:05.641Z,14.2
2018-05-07T05:12:30.573Z,14.1
2018-05-07T05:13:52.931Z,14.1
2018-05-07T05:15:17.829Z,14.2
2018-05-07T05:16:37.651Z,14.2
2018-05-07T05:17:57.473Z,14.3
2018-05-07T05:19:17.428Z,14.2
2018-05-07T05:20:37.251Z,14.3
2018-05-07T05:21:59.601Z,14.3
2018-05-07T05:23:21.964Z,14.3
2018-05-07T05:24:44.314Z,14.4
2018-05-07T05:26:04.145Z,14.4
2018-05-07T05:27:26.559Z,14.4
2018-05-07T05:28:48.978Z,14.3
2018-05-07T05:30:11.341Z,14.3
2018-05-07T05:31:33.711Z,14.3
2018-05-07T05:32:58.610Z,14.4
2018-05-07T05:34:18.435Z,14.3
2018-05-07T05:35:40.829Z,14.4
2018-05-07T05:37:00.677Z,14.5
2018-05-07T05:38:20.530Z,14.5
2018-05-07T05:39:40.422Z,14.6
2018-05-07T05:41:00.272Z,14.5
2018-05-07T05:42:20.119Z,14.5
2018-05-07T05:43:39.967Z,14.6
2018-05-07T05:44:59.950Z,14.7
2018-05-07T05:46:27.397Z,14.7
2018-05-07T05:47:47.266Z,14.8
2018-05-07T05:49:07.090Z,14.9
2018-05-07T05:50:29.501Z,14.9
2018-05-07T05:51:54.398Z,14.9
2018-05-07T05:53:21.868Z,14.8
2018-05-07T05:54:46.753Z,14.8
2018-05-07T05:56:09.173Z,14.8
2018-05-07T05:57:29.018Z,14.8
2018-05-07T05:58:51.398Z,14.8
2018-05-07T06:00:21.369Z,14.7
2018-05-07T06:01:41.207Z,14.7
2018-05-07T06:03:03.614Z,14.8
2018-05-07T06:04:43.677Z,14.8
2018-05-07T06:06:03.523Z,14.8
2018-05-07T06:07:30.964Z,14.8
2018-05-07T06:08:55.965Z,14.8
2018-05-07T06:10:15.812Z,14.8
2018-05-07T06:11:35.666Z,14.8
2018-05-07T06:12:55.543Z,14.8
2018-05-07T06:14:15.394Z,14.8
2018-05-07T06:15:35.232Z,14.8
2018-05-07T06:16:57.641Z,14.9
2018-05-07T06:18:17.465Z,14.9
2018-05-07T06:19:44.905Z,15
2018-05-07T06:21:04.757Z,15
2018-05-07T06:22:42.293Z,15
2018-05-07T06:24:02.118Z,15
2018-05-07T06:25:26.989Z,15
2018-05-07T06:26:49.358Z,15
2018-05-07T06:28:09.187Z,15
2018-05-07T06:29:29.010Z,15
2018-05-07T06:30:51.409Z,15
2018-05-07T06:32:11.273Z,15.1
2018-05-07T06:33:31.095Z,15
2018-05-07T06:34:50.979Z,15.1
2018-05-07T06:36:13.349Z,15.1
2018-05-07T06:37:33.195Z,15.1
2018-05-07T06:38:55.642Z,15.2
2018-05-07T06:40:28.127Z,15.2
2018-05-07T06:41:48.010Z,15.2
2018-05-07T06:43:10.421Z,15.2
2018-05-07T06:44:32.772Z,15.2
2018-05-07T06:45:55.153Z,15.2
2018-05-07T06:47:15.001Z,15.2
2018-05-07T06:48:37.401Z,15.2
2018-05-07T06:50:02.350Z,15.3
2018-05-07T06:51:32.312Z,15.4
2018-05-07T06:52:52.130Z,15.3
2018-05-07T06:54:14.505Z,15.4
2018-05-07T06:55:34.392Z,15.3
2018-05-07T06:56:56.750Z,15.4
2018-05-07T06:58:24.196Z,15.3
2018-05-07T06:59:46.546Z,15.3
2018-05-07T07:01:08.897Z,15.4
2018-05-07T07:02:28.890Z,15.4
2018-05-07T07:03:51.283Z,15.4
2018-05-07T07:05:16.156Z,15.4
2018-05-07T07:06:43.560Z,15.4
2018-05-07T07:08:03.440Z,15.5
2018-05-07T07:09:23.279Z,15.5
2018-05-07T07:10:43.104Z,15.5
2018-05-07T07:12:02.929Z,15.6
2018-05-07T07:13:22.772Z,15.6
2018-05-07T07:14:42.592Z,15.5
2018-05-07T07:16:02.432Z,15.6
2018-05-07T07:17:22.254Z,15.6
2018-05-07T07:18:44.696Z,15.5
2018-05-07T07:20:04.526Z,15.6
2018-05-07T07:21:24.342Z,15.6
2018-05-07T07:22:49.277Z,15.7
2018-05-07T07:24:09.118Z,15.7
2018-05-07T07:25:34.014Z,15.7
2018-05-07T07:26:53.843Z,15.7
2018-05-07T07:28:13.717Z,15.8
2018-05-07T07:29:38.625Z,15.7
2018-05-07T07:30:58.454Z,15.7
2018-05-07T07:32:18.270Z,15.7
2018-05-07T07:33:40.665Z,15.7
2018-05-07T07:35:00.507Z,15.8
2018-05-07T07:36:22.877Z,15.9
2018-05-07T07:37:42.695Z,15.9
2018-05-07T07:39:02.540Z,15.9
2018-05-07T07:40:22.368Z,15.9
2018-05-07T07:41:42.221Z,15.9
2018-05-07T07:43:04.610Z,15.9
2018-05-07T07:44:24.451Z,15.9
2018-05-07T07:45:46.803Z,16
2018-05-07T07:47:06.694Z,16
2018-05-07T07:48:31.713Z,16
2018-05-07T07:49:54.075Z,16.2
2018-05-07T07:51:16.466Z,16.3
2018-05-07T07:52:38.828Z,16.3
2018-05-07T07:53:58.650Z,16.3
2018-05-07T07:55:26.092Z,16.3
2018-05-07T07:56:45.905Z,16.3
2018-05-07T07:58:08.256Z,16.3
2018-05-07T07:59:28.072Z,16.3
2018-05-07T08:00:50.484Z,16.3
2018-05-07T08:02:10.329Z,16.3
2018-05-07T08:03:30.185Z,16.3
2018-05-07T08:04:50.077Z,16.1
2018-05-07T08:06:09.965Z,16.1
2018-05-07T08:07:29.812Z,16.1
2018-05-07T08:08:49.703Z,16.1
2018-05-07T08:10:09.552Z,16.1
2018-05-07T08:11:29.406Z,16.1
2018-05-07T08:12:49.264Z,16.1
2018-05-07T08:14:09.095Z,16.1
2018-05-07T08:15:34.030Z,16.1
2018-05-07T08:16:53.845Z,16.1
2018-05-07T08:18:13.687Z,16.1
2018-05-07T08:19:33.589Z,16.1
2018-05-07T08:20:55.954Z,16.1
2018-05-07T08:22:15.785Z,16.1
2018-05-07T08:23:40.715Z,16.1
2018-05-07T08:25:00.547Z,16.2
2018-05-07T08:26:28.019Z,16.2
2018-05-07T08:27:50.363Z,16.2
2018-05-07T08:29:15.252Z,16.3
2018-05-07T08:30:35.166Z,16.3
2018-05-07T08:31:55.021Z,16.3
2018-05-07T08:33:17.415Z,16.3
2018-05-07T08:34:37.283Z,16.3
2018-05-07T08:35:57.104Z,16.3
2018-05-07T08:37:16.940Z,16.3
2018-05-07T08:38:36.775Z,16.4
2018-05-07T08:40:01.655Z,16.3
2018-05-07T08:41:24.017Z,16.3
2018-05-07T08:42:46.423Z,16.3
2018-05-07T08:44:06.252Z,16.3
2018-05-07T08:45:26.071Z,16.3
2018-05-07T08:46:48.441Z,16.3
2018-05-07T08:48:08.264Z,16.3
2018-05-07T08:49:28.084Z,16.4
2018-05-07T08:50:50.530Z,16.4
2018-05-07T08:52:10.361Z,16.5
2018-05-07T08:53:30.179Z,16.5
2018-05-07T08:54:50.036Z,16.5
2018-05-07T08:56:09.940Z,16.5
2018-05-07T08:57:29.789Z,16.5
2018-05-07T08:58:49.645Z,16.5
2018-05-07T09:00:12.049Z,16.5
2018-05-07T09:01:31.878Z,16.4
2018-05-07T09:02:56.854Z,16.5
2018-05-07T09:04:16.712Z,16.5
2018-05-07T09:05:36.536Z,16.5
2018-05-07T09:06:56.380Z,16.5
2018-05-07T09:08:16.198Z,16.5
2018-05-07T09:09:36.014Z,16.5
2018-05-07T09:11:00.990Z,16.5
2018-05-07T09:12:23.357Z,16.5
2018-05-07T09:13:43.235Z,16.5
2018-05-07T09:15:05.678Z,16.5
2018-05-07T09:16:25.506Z,16.5
2018-05-07T09:17:47.860Z,16.5
2018-05-07T09:19:07.674Z,16.5
2018-05-07T09:20:30.037Z,16.5
2018-05-07T09:21:49.880Z,16.6
2018-05-07T09:23:09.765Z,16.6
2018-05-07T09:24:34.711Z,16.5
2018-05-07T09:25:59.619Z,16.6
2018-05-07T09:27:24.602Z,16.6
2018-05-07T09:28:44.458Z,16.6
2018-05-07T09:30:09.370Z,16.6
2018-05-07T09:31:34.346Z,16.6
2018-05-07T09:33:04.443Z,16.6
2018-05-07T09:34:26.813Z,16.6
2018-05-07T09:35:49.186Z,16.6
2018-05-07T09:37:09.034Z,16.6
2018-05-07T09:38:28.917Z,16.6
2018-05-07T09:39:53.807Z,16.6
2018-05-07T09:41:23.836Z,16.6
2018-05-07T09:42:46.233Z,16.6
2018-05-07T09:44:06.057Z,16.6
2018-05-07T09:45:28.407Z,16.6
2018-05-07T09:46:48.241Z,16.6
2018-05-07T09:48:20.781Z,16.6
2018-05-07T09:49:40.648Z,16.6
2018-05-07T09:51:05.533Z,16.6
2018-05-07T09:52:25.407Z,16.6
2018-05-07T09:53:45.273Z,16.6
2018-05-07T09:55:05.134Z,16.6
2018-05-07T09:56:35.083Z,16.7
2018-05-07T09:57:57.499Z,16.7
2018-05-07T09:59:17.327Z,16.7
2018-05-07T10:00:39.731Z,16.7
2018-05-07T10:01:59.584Z,16.7
2018-05-07T10:03:19.429Z,16.7
2018-05-07T10:04:39.280Z,16.7
2018-05-07T10:05:59.127Z,16.7
2018-05-07T10:07:26.596Z,16.7
2018-05-07T10:08:51.514Z,16.7
2018-05-07T10:10:11.365Z,16.7
2018-05-07T10:11:31.186Z,16.7
2018-05-07T10:12:51.024Z,16.7
2018-05-07T10:14:26.069Z,16.7
2018-05-07T10:15:50.972Z,16.8
2018-05-07T10:17:13.368Z,16.8
2018-05-07T10:18:35.742Z,16.8
2018-05-07T10:19:55.567Z,16.8
2018-05-07T10:21:15.387Z,16.7
2018-05-07T10:22:47.879Z,16.7
2018-05-07T10:24:07.792Z,16.8
2018-05-07T10:25:30.164Z,16.8
2018-05-07T10:26:50.019Z,16.8
2018-05-07T10:28:14.906Z,16.8
2018-05-07T10:29:34.747Z,16.8
2018-05-07T10:30:54.634Z,16.8
2018-05-07T10:32:14.498Z,16.8
2018-05-07T10:33:36.850Z,16.8
2018-05-07T10:34:59.261Z,16.8
2018-05-07T10:36:19.114Z,16.9
2018-05-07T10:37:44.042Z,16.8
2018-05-07T10:39:03.904Z,16.9
2018-05-07T10:40:23.751Z,16.9
2018-05-07T10:41:48.668Z,16.9
2018-05-07T10:43:08.501Z,16.9
2018-05-07T10:44:28.385Z,16.9
2018-05-07T10:45:48.205Z,16.9
2018-05-07T10:47:10.564Z,16.9
2018-05-07T10:48:30.416Z,16.9
2018-05-07T10:49:50.254Z,16.9
2018-05-07T10:51:15.141Z,17
2018-05-07T10:52:37.521Z,17
2018-05-07T10:53:57.376Z,17
2018-05-07T10:55:19.733Z,17
2018-05-07T10:56:39.590Z,17
2018-05-07T10:58:01.973Z,17
2018-05-07T10:59:24.376Z,17
2018-05-07T11:00:44.275Z,17
2018-05-07T11:02:04.182Z,17
2018-05-07T11:03:26.527Z,17
2018-05-07T11:04:46.374Z,17.3
2018-05-07T11:06:06.205Z,17
2018-05-07T11:07:28.643Z,17
2018-05-07T11:08:51.016Z,17
2018-05-07T11:10:10.889Z,17
2018-05-07T11:11:33.238Z,17.1
2018-05-07T11:12:55.599Z,17.1
2018-05-07T11:14:20.546Z,17.1
2018-05-07T11:15:50.527Z,17.1
2018-05-07T11:17:17.994Z,17.1
2018-05-07T11:18:45.409Z,17.1
2018-05-07T11:20:07.824Z,17.1
2018-05-07T11:21:27.704Z,17.1
2018-05-07T11:22:47.572Z,17.1
2018-05-07T11:24:07.400Z,17.1
2018-05-07T11:25:27.219Z,17.1
2018-05-07T11:26:54.666Z,17.1
2018-05-07T11:28:22.118Z,17.1
2018-05-07T11:29:41.983Z,17.1
2018-05-07T11:31:01.897Z,17.1
2018-05-07T11:32:29.394Z,17.1
2018-05-07T11:33:54.317Z,17.1
2018-05-07T11:35:24.286Z,17.2
2018-05-07T11:36:54.271Z,17.2
2018-05-07T11:38:14.163Z,17.2
2018-05-07T11:39:34.019Z,17.2
2018-05-07T11:40:53.912Z,17.2
2018-05-07T11:42:13.832Z,17.2
2018-05-07T11:43:33.722Z,17.2
2018-05-07T11:44:56.090Z,17.2
2018-05-07T11:46:18.471Z,17.2
2018-05-07T11:47:38.469Z,17.2
2018-05-07T11:49:03.389Z,17.2
2018-05-07T11:50:23.256Z,17.3
2018-05-07T11:51:45.675Z,17.2
2018-05-07T11:53:05.541Z,17.3
2018-05-07T11:54:27.937Z,17.3
2018-05-07T11:55:47.767Z,17.3
2018-05-07T11:57:07.638Z,17.4
2018-05-07T11:58:27.459Z,17.4
2018-05-07T11:59:49.804Z,17.4
2018-05-07T12:01:17.284Z,17.4
2018-05-07T12:02:37.114Z,17.6
2018-05-07T12:04:02.017Z,17.7
2018-05-07T12:05:21.870Z,17.9
2018-05-07T12:06:41.725Z,18.2
2018-05-07T12:08:01.581Z,18.7
2018-05-07T12:09:23.970Z,19.4
2018-05-07T12:10:43.855Z,20.2
2018-05-07T12:12:08.762Z,20.8
2018-05-07T12:13:28.660Z,21.3
2018-05-07T12:14:48.533Z,21.6
2018-05-07T12:16:10.924Z,21.9
2018-05-07T12:17:33.289Z,22.1
2018-05-07T12:18:53.116Z,22.3
2018-05-07T12:20:12.988Z,22.4
2018-05-07T12:21:35.391Z,22.5
2018-05-07T12:22:55.229Z,22.7
2018-05-07T12:24:25.173Z,23.1
2018-05-07T12:25:55.129Z,22.8
2018-05-07T12:27:27.647Z,22.7
2018-05-07T12:28:47.483Z,22.7
2018-05-07T12:30:09.846Z,22.6
2018-05-07T12:31:29.788Z,22.5
2018-05-07T12:32:52.270Z,22.3
2018-05-07T12:34:12.226Z,22.1
2018-05-07T12:35:32.055Z,21.9
2018-05-07T12:36:56.999Z,21.6
2018-05-07T12:38:21.892Z,21.4
2018-05-07T12:39:41.709Z,21.2
2018-05-07T12:41:01.533Z,20.8
2018-05-07T12:42:21.394Z,20.6
2018-05-07T12:43:41.220Z,20.5
2018-05-07T12:45:06.153Z,20.1
2018-05-07T12:46:25.968Z,19.7
2018-05-07T12:47:48.399Z,19.1
2018-05-07T12:49:08.247Z,20.2
2018-05-07T12:50:28.129Z,20.1
2018-05-07T12:51:47.955Z,20
2018-05-07T12:53:07.856Z,19.9
2018-05-07T12:54:27.680Z,19.9
2018-05-07T12:55:47.493Z,19.8
2018-05-07T12:57:07.324Z,19.8
2018-05-07T12:58:32.212Z,19.8
2018-05-07T12:59:52.083Z,19.7
2018-05-07T13:01:14.453Z,19.7
2018-05-07T13:02:41.866Z,19.7
2018-05-07T13:04:04.250Z,19.7
2018-05-07T13:05:24.095Z,19.6
2018-05-07T13:06:43.985Z,19.6
2018-05-07T13:08:08.920Z,19.5
2018-05-07T13:09:33.871Z,19.4
2018-05-07T13:10:53.770Z,19.4
2018-05-07T13:12:18.696Z,19.5
2018-05-07T13:13:38.546Z,19.5
2018-05-07T13:14:58.386Z,19.4
2018-05-07T13:16:18.231Z,19.5
2018-05-07T13:17:40.594Z,19.5
2018-05-07T13:19:00.458Z,19.5
2018-05-07T13:20:20.276Z,19.4
2018-05-07T13:21:40.151Z,19.4
2018-05-07T13:22:59.984Z,19.2
2018-05-07T13:24:19.845Z,19.4
2018-05-07T13:25:47.283Z,19.5
2018-05-07T13:27:12.180Z,19.4
2018-05-07T13:28:32.000Z,19.6
2018-05-07T13:29:51.824Z,19.5
2018-05-07T13:31:14.187Z,19.4
2018-05-07T13:32:36.566Z,19.5
2018-05-07T13:33:56.393Z,19.5
2018-05-07T13:35:18.785Z,19.6
2018-05-07T13:36:43.780Z,19.5
2018-05-07T13:38:03.631Z,19.6
2018-05-07T13:39:23.502Z,19.6
2018-05-07T13:40:43.360Z,19.7
2018-05-07T13:42:05.772Z,19.7
2018-05-07T13:43:28.171Z,19.8
2018-05-07T13:44:50.540Z,19.8
2018-05-07T13:46:12.893Z,19.8
2018-05-07T13:47:35.268Z,19.8
2018-05-07T13:49:05.237Z,19.9
2018-05-07T13:50:25.058Z,20
2018-05-07T13:51:49.941Z,20.1
2018-05-07T13:53:22.413Z,20.1
2018-05-07T13:54:44.761Z,20.2
2018-05-07T13:56:09.671Z,20.2
2018-05-07T13:57:29.547Z,20.3
2018-05-07T13:58:49.370Z,20.3
2018-05-07T14:00:11.727Z,20.6
2018-05-07T14:01:39.139Z,20.6
2018-05-07T14:02:58.975Z,20.7
2018-05-07T14:04:18.831Z,20.7
2018-05-07T14:05:38.719Z,20.7
2018-05-07T14:07:01.138Z,20.7
2018-05-07T14:08:28.581Z,20.7
2018-05-07T14:09:48.572Z,20.7
2018-05-07T14:11:08.435Z,20.7
2018-05-07T14:12:33.353Z,20.5
2018-05-07T14:14:00.828Z,20.6
2018-05-07T14:15:20.693Z,20.6
2018-05-07T14:16:43.176Z,20.6
2018-05-07T14:18:05.646Z,20.7
2018-05-07T14:19:33.106Z,20.7
2018-05-07T14:20:58.015Z,20.7
2018-05-07T14:22:17.866Z,20.8
2018-05-07T14:23:42.757Z,20.8
2018-05-07T14:25:05.138Z,20.9
2018-05-07T14:26:27.517Z,21
2018-05-07T14:27:49.868Z,21.2
2018-05-07T14:29:09.724Z,21.2
2018-05-07T14:30:29.549Z,21.2
2018-05-07T14:31:49.420Z,21.3
2018-05-07T14:33:16.872Z,21.5
2018-05-07T14:34:36.697Z,21.6
2018-05-07T14:36:04.108Z,21.7
2018-05-07T14:37:23.934Z,21.6
2018-05-07T14:38:43.791Z,21.7
2018-05-07T14:40:03.694Z,21.9
2018-05-07T14:41:26.049Z,21.9
2018-05-07T14:42:45.874Z,21.9
2018-05-07T14:44:05.722Z,21.7
2018-05-07T14:45:30.599Z,21.5
2018-05-07T14:46:52.974Z,21.7
2018-05-07T14:48:12.882Z,21.8
2018-05-07T14:49:37.847Z,21.7
2018-05-07T14:50:57.741Z,21.5
2018-05-07T14:52:17.567Z,21.4
2018-05-07T14:53:39.964Z,20.9
2018-05-07T14:55:02.308Z,20.8
2018-05-07T14:56:24.658Z,21
2018-05-07T14:57:44.477Z,21
2018-05-07T14:59:06.884Z,20.9
2018-05-07T15:00:26.713Z,21.1
2018-05-07T15:01:49.112Z,20.9
2018-05-07T15:03:08.936Z,20.8
2018-05-07T15:04:31.304Z,20.5
2018-05-07T15:05:51.146Z,20.2
2018-05-07T15:07:16.041Z,20
2018-05-07T15:08:40.929Z,19.9
2018-05-07T15:10:00.806Z,19.7
2018-05-07T15:11:33.378Z,19.6
2018-05-07T15:12:55.780Z,19.5
2018-05-07T15:14:15.604Z,19.5
2018-05-07T15:15:37.997Z,19.4
2018-05-07T15:17:02.906Z,19.4
2018-05-07T15:18:25.255Z,19.3
2018-05-07T15:19:47.628Z,19.3
2018-05-07T15:21:10.024Z,19.2
2018-05-07T15:22:34.918Z,19.2
2018-05-07T15:23:54.796Z,19.1
2018-05-07T15:25:14.619Z,19.1
2018-05-07T15:26:36.987Z,19.2
2018-05-07T15:27:56.869Z,19
2018-05-07T15:29:19.288Z,18.9
2018-05-07T15:30:39.263Z,19
2018-05-07T15:31:59.129Z,18.9
2018-05-07T15:33:18.989Z,18.9
2018-05-07T15:34:53.998Z,18.9
2018-05-07T15:36:13.865Z,18.9
2018-05-07T15:37:51.422Z,18.9
2018-05-07T15:39:11.240Z,18.9
2018-05-07T15:40:31.093Z,18.9
2018-05-07T15:41:50.966Z,19
2018-05-07T15:43:10.791Z,19
2018-05-07T15:44:33.170Z,19
2018-05-07T15:45:53.081Z,18.9
2018-05-07T15:47:20.497Z,18.9
2018-05-07T15:48:40.330Z,18.9
2018-05-07T15:50:02.751Z,19
2018-05-07T15:51:22.657Z,18.8
2018-05-07T15:52:47.566Z,18.8
2018-05-07T15:54:07.454Z,18.8
2018-05-07T15:55:32.364Z,18.8
2018-05-07T15:56:54.796Z,18.8
2018-05-07T15:58:19.707Z,18.8
2018-05-07T15:59:39.561Z,18.8
2018-05-07T16:00:59.382Z,18.8
2018-05-07T16:02:19.196Z,18.8
2018-05-07T16:03:41.596Z,18.9
2018-05-07T16:05:09.008Z,18.8
2018-05-07T16:06:31.409Z,18.8
2018-05-07T16:07:51.228Z,18.7
2018-05-07T16:09:11.058Z,18.8
2018-05-07T16:10:33.457Z,18.7
2018-05-07T16:11:55.876Z,18.7
2018-05-07T16:13:15.743Z,18.7
2018-05-07T16:14:35.566Z,18.8
2018-05-07T16:15:57.998Z,18.7
2018-05-07T16:17:17.920Z,18.7
2018-05-07T16:18:40.390Z,18.7
2018-05-07T16:20:05.273Z,18.7
2018-05-07T16:21:27.828Z,18.6
2018-05-07T16:22:50.360Z,18.6
2018-05-07T16:24:10.177Z,18.6
2018-05-07T16:25:35.071Z,18.6
2018-05-07T16:26:59.963Z,18.6
2018-05-07T16:28:19.810Z,18.6
2018-05-07T16:29:39.637Z,18.6
2018-05-07T16:30:59.551Z,18.6
2018-05-07T16:32:19.421Z,18.5
2018-05-07T16:33:46.861Z,18.6
2018-05-07T16:35:09.214Z,18.5
2018-05-07T16:36:31.571Z,18.5
2018-05-07T16:37:56.474Z,18.5
2018-05-07T16:39:18.839Z,18.5
2018-05-07T16:40:38.668Z,18.5
2018-05-07T16:41:58.530Z,18.5
2018-05-07T16:43:18.360Z,18.6
2018-05-07T16:44:43.266Z,18.5
2018-05-07T16:46:03.152Z,18.5
2018-05-07T16:47:25.547Z,18.5
2018-05-07T16:48:45.499Z,18.5
2018-05-07T16:50:05.381Z,18.5
2018-05-07T16:51:25.206Z,18.5
2018-05-07T16:52:50.084Z,18.4
2018-05-07T16:54:20.159Z,18.4
2018-05-07T16:55:55.230Z,18.5
2018-05-07T16:57:15.059Z,18.5
2018-05-07T16:58:34.882Z,18.4
2018-05-07T16:59:54.766Z,18.4
2018-05-07T17:01:14.600Z,18.4
2018-05-07T17:02:36.960Z,18.4
2018-05-07T17:04:01.917Z,18.4
2018-05-07T17:05:24.313Z,18.4
2018-05-07T17:06:44.138Z,18.4
2018-05-07T17:08:04.015Z,18.4
2018-05-07T17:09:23.911Z,18.4
2018-05-07T17:10:46.305Z,18.4
2018-05-07T17:12:11.226Z,18.4
2018-05-07T17:13:31.064Z,18.4
2018-05-07T17:14:50.911Z,18.3
2018-05-07T17:16:13.311Z,18.4
2018-05-07T17:17:33.140Z,18.4
2018-05-07T17:18:53.007Z,18.4
2018-05-07T17:20:25.482Z,18.4
2018-05-07T17:21:45.321Z,18.4
2018-05-07T17:23:05.191Z,18.4
2018-05-07T17:24:25.104Z,18.4
2018-05-07T17:25:44.999Z,18.4
2018-05-07T17:27:04.898Z,18.4
2018-05-07T17:28:24.716Z,18.4
2018-05-07T17:29:47.135Z,18.4
2018-05-07T17:31:09.497Z,18.4
2018-05-07T17:32:39.472Z,18.4
2018-05-07T17:33:59.449Z,18.4
2018-05-07T17:35:24.491Z,18.3
2018-05-07T17:36:44.311Z,18.2
2018-05-07T17:38:06.673Z,18.2
2018-05-07T17:39:31.564Z,18.2
2018-05-07T17:40:56.509Z,18.4
2018-05-07T17:42:21.406Z,18.4
2018-05-07T17:43:41.228Z,18.4
2018-05-07T17:45:03.578Z,18.4
2018-05-07T17:46:23.398Z,18.3
2018-05-07T17:47:50.887Z,18.3
2018-05-07T17:49:13.313Z,18.3
2018-05-07T17:50:33.144Z,18.3
2018-05-07T17:51:53.007Z,18.2
2018-05-07T17:53:12.860Z,18.2
2018-05-07T17:54:32.782Z,18.2
2018-05-07T17:55:57.752Z,18.2
2018-05-07T17:57:17.607Z,18.2
2018-05-07T17:58:37.474Z,18.2
2018-05-07T17:59:57.376Z,18.2
2018-05-07T18:01:27.386Z,18.2
2018-05-07T18:02:47.237Z,18.2
2018-05-07T18:04:12.152Z,18.2
2018-05-07T18:05:32.028Z,18.1
2018-05-07T18:06:54.410Z,18.1
2018-05-07T18:08:14.230Z,18.1
2018-05-07T18:09:34.115Z,18.1
2018-05-07T18:10:56.655Z,18.1
2018-05-07T18:12:16.613Z,18
2018-05-07T18:13:38.966Z,18
2018-05-07T18:14:58.787Z,18.1
2018-05-07T18:16:18.658Z,18
2018-05-07T18:17:48.631Z,18